createdAt,value
2019-02-15T00:00:42.006Z,82.30
2019-02-15T00:03:19.026Z,82.50
2019-02-15T00:05:51.811Z,82.40
2019-02-15T00:08:24.542Z,82.60
2019-02-15T00:10:57.350Z,82.60
2019-02-15T00:13:30.826Z,82.80
2019-02-15T00:16:02.527Z,82.80
2019-02-15T00:18:42.838Z,83.00
2019-02-15T00:21:17.109Z,82.90
2019-02-15T00:23:53.309Z,83.00
2019-02-15T00:26:25.306Z,83.10
2019-02-15T00:28:58.223Z,83.10
2019-02-15T00:31:30.229Z,83.20
2019-02-15T00:34:01.586Z,83.20
2019-02-15T00:36:34.585Z,83.20
2019-02-15T00:39:07.785Z,83.30
2019-02-15T00:41:40.229Z,83.30
2019-02-15T00:44:13.485Z,83.30
2019-02-15T00:46:58.250Z,83.20
2019-02-15T00:49:39.407Z,83.30
2019-02-15T00:52:16.328Z,83.30
2019-02-15T00:55:05.117Z,83.30
2019-02-15T00:58:02.769Z,83.30
2019-02-15T01:00:53.197Z,83.20
2019-02-15T01:07:14.997Z,83.30
2019-02-15T01:10:19.723Z,83.30
2019-02-15T01:13:10.407Z,83.30
2019-02-15T01:15:41.789Z,83.20
2019-02-15T01:18:20.321Z,83.20
2019-02-15T01:20:52.392Z,83.30
2019-02-15T01:23:23.587Z,83.40
2019-02-15T01:26:22.952Z,83.30
2019-02-15T01:29:22.195Z,83.50
2019-02-15T01:32:11.812Z,83.50
2019-02-15T01:34:58.785Z,83.60
2019-02-15T01:38:01.810Z,83.70
2019-02-15T01:40:58.786Z,83.80
2019-02-15T01:43:49.423Z,83.90
2019-02-15T01:46:30.476Z,84.00
2019-02-15T01:49:01.673Z,84.00
2019-02-15T01:51:33.290Z,84.10
2019-02-15T01:54:04.739Z,84.30
2019-02-15T01:56:43.424Z,84.20
2019-02-15T01:59:14.616Z,83.70
2019-02-15T02:01:47.251Z,84.30
2019-02-15T02:04:18.592Z,84.40
2019-02-15T02:06:50.088Z,84.50
2019-02-15T02:11:54.228Z,84.60
2019-02-15T02:14:29.261Z,84.70
2019-02-15T02:17:02.482Z,84.70
2019-02-15T02:19:41.601Z,84.90
2019-02-15T02:30:05.187Z,84.80
2019-02-15T02:32:39.445Z,84.70
2019-02-15T02:35:22.413Z,84.70
2019-02-15T02:43:59.223Z,84.00
2019-02-15T02:46:31.679Z,84.70
2019-02-15T02:49:11.521Z,84.70
2019-02-15T02:51:44.927Z,84.80
2019-02-15T02:54:23.878Z,84.70
2019-02-15T02:56:55.603Z,84.90
2019-02-15T02:59:28.942Z,85.00
2019-02-15T03:02:00.741Z,85.10
2019-02-15T03:04:32.257Z,85.20
2019-02-15T03:07:12.060Z,85.30
2019-02-15T03:09:59.021Z,85.30
2019-02-15T03:12:30.753Z,85.50
2019-02-15T03:15:02.103Z,85.40
2019-02-15T03:20:04.403Z,98.10
2019-02-15T03:22:39.558Z,85.70
2019-02-15T03:25:11.215Z,85.70
2019-02-15T03:27:42.998Z,91.00
2019-02-15T03:32:45.698Z,92.80
2019-02-15T03:35:17.037Z,85.70
2019-02-15T03:38:06.755Z,85.80
2019-02-15T03:40:42.959Z,85.80
2019-02-15T03:43:14.504Z,85.80
2019-02-15T03:45:46.709Z,85.90
2019-02-15T03:48:19.432Z,86.10
2019-02-15T03:50:51.658Z,86.10
2019-02-15T03:53:23.237Z,86.30
2019-02-15T03:55:54.615Z,86.30
2019-02-15T03:58:26.530Z,86.20
2019-02-15T04:00:57.832Z,88.80
2019-02-15T04:08:32.154Z,91.50
2019-02-15T04:11:03.608Z,86.30
2019-02-15T04:13:35.535Z,86.30
2019-02-15T04:16:06.888Z,86.30
2019-02-15T04:21:09.065Z,85.80
2019-02-15T04:23:42.634Z,91.30
2019-02-15T04:26:14.153Z,91.70
2019-02-15T04:28:45.474Z,90.10
2019-02-15T04:31:16.967Z,87.30
2019-02-15T04:33:48.327Z,86.70
2019-02-15T04:36:19.581Z,86.80
2019-02-15T04:38:51.157Z,86.80
2019-02-15T04:41:22.623Z,86.80
2019-02-15T04:43:59.289Z,86.90
2019-02-15T04:46:50.125Z,86.90
2019-02-15T04:52:17.906Z,90.20
2019-02-15T04:57:17.425Z,90.30
2019-02-15T05:05:06.978Z,89.10
2019-02-15T05:07:54.955Z,89.40
2019-02-15T05:15:50.593Z,90.20
2019-02-15T05:18:21.105Z,90.30
2019-02-15T05:20:52.608Z,90.40
2019-02-15T05:23:27.168Z,90.60
2019-02-15T05:25:59.786Z,91.90
2019-02-15T05:31:03.430Z,91.00
2019-02-15T05:38:38.257Z,92.00
2019-02-15T05:48:42.185Z,92.60
2019-02-15T05:53:44.643Z,92.30
2019-02-15T05:56:16.024Z,92.60
2019-02-15T05:58:47.519Z,92.70
2019-02-15T06:01:19.371Z,92.50
2019-02-15T06:08:52.194Z,92.00
2019-02-15T06:13:54.239Z,93.00
2019-02-15T06:16:25.603Z,92.60
2019-02-15T06:18:56.769Z,92.30
2019-02-15T06:21:29.561Z,91.20
2019-02-15T06:24:02.456Z,92.40
2019-02-15T06:26:33.803Z,92.10
2019-02-15T06:29:05.186Z,91.70
2019-02-15T06:51:37.206Z,90.40
2019-02-15T07:01:58.987Z,92.20
2019-02-15T07:07:06.424Z,92.40
2019-02-15T07:09:38.455Z,92.60
2019-02-15T07:12:09.730Z,92.60
2019-02-15T07:14:41.872Z,92.40
2019-02-15T07:19:43.944Z,92.70
2019-02-15T07:22:15.564Z,92.80
2019-02-15T07:24:47.338Z,92.40
2019-02-15T07:27:18.805Z,92.60
2019-02-15T07:29:50.425Z,91.10
2019-02-15T07:32:22.110Z,91.70
2019-02-15T07:34:53.526Z,91.50
2019-02-15T07:37:24.818Z,90.70
2019-02-15T07:39:56.063Z,92.00
2019-02-15T07:42:27.469Z,92.00
2019-02-15T07:44:58.659Z,91.60
2019-02-15T07:47:30.037Z,92.00
2019-02-15T07:50:01.363Z,92.30
2019-02-15T07:55:04.489Z,92.20
2019-02-15T08:00:09.093Z,92.40
2019-02-15T08:02:41.901Z,91.90
2019-02-15T08:05:13.266Z,91.80
2019-02-15T08:07:44.533Z,92.20
2019-02-15T08:12:47.230Z,92.00
2019-02-15T08:15:18.545Z,91.70
2019-02-15T08:17:50.030Z,92.40
2019-02-15T08:22:52.173Z,91.50
2019-02-15T08:25:23.778Z,91.60
2019-02-15T08:27:56.038Z,91.40
2019-02-15T08:30:27.463Z,91.60
2019-02-15T08:32:58.814Z,92.00
2019-02-15T08:38:00.926Z,92.10
2019-02-15T08:40:32.260Z,92.10
2019-02-15T08:45:34.366Z,91.60
2019-02-15T08:48:05.738Z,92.00
2019-02-15T08:50:37.074Z,91.90
2019-02-15T08:53:08.576Z,90.80
2019-02-15T08:55:41.126Z,92.20
2019-02-15T09:05:45.764Z,91.30
2019-02-15T09:10:47.506Z,91.00
2019-02-15T09:13:19.107Z,91.40
2019-02-15T09:18:21.611Z,90.60
2019-02-15T09:20:52.858Z,91.70
2019-02-15T09:28:39.117Z,91.80
2019-02-15T09:31:10.736Z,91.60
2019-02-15T09:33:43.577Z,91.70
2019-02-15T09:36:14.862Z,91.30
2019-02-15T09:38:46.530Z,92.00
2019-02-15T09:41:17.787Z,92.10
2019-02-15T09:48:51.625Z,92.50
2019-02-15T09:51:22.808Z,92.80
2019-02-15T09:56:25.078Z,92.40
2019-02-15T09:58:56.446Z,91.60
2019-02-15T10:01:27.881Z,91.40
2019-02-15T10:06:30.046Z,92.70
2019-02-15T10:09:01.567Z,93.00
2019-02-15T10:11:33.958Z,92.60
2019-02-15T10:14:05.277Z,91.70
2019-02-15T10:16:36.867Z,92.10
2019-02-15T10:21:38.774Z,90.30
2019-02-15T10:24:10.169Z,91.60
2019-02-15T10:26:42.185Z,91.80
2019-02-15T10:29:13.529Z,92.30
2019-02-15T10:34:16.773Z,91.90
2019-02-15T10:36:48.089Z,92.70
2019-02-15T10:39:20.140Z,91.80
2019-02-15T10:41:52.052Z,92.00
2019-02-15T10:44:23.372Z,92.00
2019-02-15T10:46:54.657Z,91.30
2019-02-15T10:49:25.950Z,92.10
2019-02-15T10:51:57.298Z,92.30
2019-02-15T10:54:32.710Z,92.10
2019-02-15T10:57:03.901Z,92.10
2019-02-15T10:59:35.266Z,92.50
2019-02-15T11:02:09.301Z,92.00
2019-02-15T11:04:41.298Z,91.60
2019-02-15T11:07:12.751Z,91.50
2019-02-15T11:09:43.966Z,91.50
2019-02-15T11:12:15.468Z,91.40
2019-02-15T11:14:46.811Z,91.80
2019-02-15T11:17:18.226Z,91.30
2019-02-15T11:19:49.862Z,91.80
2019-02-15T11:22:21.220Z,91.60
2019-02-15T11:24:52.506Z,92.00
2019-02-15T11:27:23.826Z,91.60
2019-02-15T11:29:55.347Z,91.60
2019-02-15T11:32:26.620Z,91.60
2019-02-15T11:34:57.895Z,91.10
2019-02-15T11:37:29.222Z,91.80
2019-02-15T11:40:01.859Z,91.30
2019-02-15T11:45:04.332Z,91.90
2019-02-15T11:47:36.233Z,92.60
2019-02-15T11:50:08.513Z,91.80
2019-02-15T11:52:41.334Z,90.60
2019-02-15T11:55:12.985Z,91.20
2019-02-15T11:57:44.501Z,90.00
2019-02-15T12:00:20.381Z,91.90
2019-02-15T12:02:52.843Z,90.60
2019-02-15T12:05:24.173Z,91.60
2019-02-15T12:07:57.429Z,91.20
2019-02-15T12:10:28.773Z,91.30
2019-02-15T12:13:00.065Z,89.60
2019-02-15T12:15:32.284Z,91.10
2019-02-15T12:18:03.734Z,91.00
2019-02-15T12:20:35.081Z,91.60
2019-02-15T12:28:08.975Z,91.10
2019-02-15T12:30:40.830Z,91.90
2019-02-15T12:33:12.038Z,91.50
2019-02-15T12:35:43.425Z,90.80
2019-02-15T12:38:14.941Z,90.90
2019-02-15T12:43:17.693Z,91.00
2019-02-15T12:45:48.944Z,90.60
2019-02-15T12:48:20.720Z,88.80
2019-02-15T12:50:52.012Z,89.80
2019-02-15T12:53:23.380Z,87.10
2019-02-15T12:55:55.163Z,86.90
2019-02-15T12:58:26.494Z,90.50
2019-02-15T13:00:57.787Z,89.80
2019-02-15T13:03:29.029Z,89.90
2019-02-15T13:06:01.263Z,89.20
2019-02-15T13:08:33.048Z,89.80
2019-02-15T13:11:04.464Z,89.30
2019-02-15T13:13:35.871Z,89.50
2019-02-15T13:16:07.327Z,89.70
2019-02-15T13:18:41.065Z,89.80
2019-02-15T13:23:43.124Z,88.60
2019-02-15T13:26:14.433Z,87.80
2019-02-15T13:28:45.836Z,89.00
2019-02-15T13:31:17.114Z,89.00
2019-02-15T13:33:48.451Z,87.50
2019-02-15T13:36:19.989Z,88.70
2019-02-15T13:43:55.441Z,88.80
2019-02-15T13:46:26.802Z,89.60
2019-02-15T13:48:59.179Z,88.70
2019-02-15T13:51:30.981Z,89.90
2019-02-15T13:54:04.240Z,88.40
2019-02-15T13:56:40.447Z,89.20
2019-02-15T14:04:12.535Z,89.50
2019-02-15T14:06:45.593Z,85.10
2019-02-15T14:09:17.044Z,88.10
2019-02-15T14:11:48.251Z,88.90
2019-02-15T14:14:20.729Z,88.60
2019-02-15T14:16:53.726Z,86.20
2019-02-15T14:19:24.952Z,87.60
2019-02-15T14:21:56.564Z,89.50
2019-02-15T14:24:28.454Z,89.40
2019-02-15T14:27:00.398Z,88.90
2019-02-15T14:29:32.521Z,87.90
2019-02-15T14:32:05.289Z,88.90
2019-02-15T14:34:38.791Z,87.80
2019-02-15T14:39:42.249Z,86.30
2019-02-15T14:42:13.939Z,88.70
2019-02-15T14:44:45.933Z,88.40
2019-02-15T14:47:17.402Z,88.00
2019-02-15T14:49:48.592Z,88.80
2019-02-15T14:52:19.885Z,88.00
2019-02-15T14:54:56.078Z,88.50
2019-02-15T15:00:01.087Z,87.70
2019-02-15T15:02:33.769Z,87.90
2019-02-15T15:05:05.540Z,86.00
2019-02-15T15:07:36.947Z,87.70
2019-02-15T15:10:08.636Z,87.70
2019-02-15T15:12:40.760Z,87.50
2019-02-15T15:15:12.362Z,86.10
2019-02-15T15:17:45.739Z,88.70
2019-02-15T15:20:16.915Z,88.50
2019-02-15T15:22:48.149Z,88.90
2019-02-15T15:27:50.623Z,89.00
2019-02-15T15:32:52.988Z,87.80
2019-02-15T15:35:24.657Z,90.10
2019-02-15T15:45:33.894Z,90.10
2019-02-15T15:48:22.666Z,90.80
2019-02-15T15:50:53.185Z,90.50
2019-02-15T15:59:55.953Z,90.20
2019-02-15T16:02:27.312Z,91.20
2019-02-15T16:05:00.347Z,90.10
2019-02-15T16:10:03.050Z,91.80
2019-02-15T16:15:05.772Z,90.30
2019-02-15T16:25:12.601Z,90.50
2019-02-15T16:30:20.295Z,88.50
2019-02-15T16:32:56.537Z,88.60
2019-02-15T16:35:43.494Z,88.50
2019-02-15T16:40:57.579Z,89.30
2019-02-15T16:43:31.094Z,87.90
2019-02-15T16:46:10.632Z,87.70
2019-02-15T16:51:13.750Z,87.80
2019-02-15T16:53:44.434Z,85.10
2019-02-15T16:56:15.909Z,87.20
2019-02-15T16:58:48.337Z,86.40
2019-02-15T17:01:20.038Z,86.20
2019-02-15T17:03:51.894Z,87.20
2019-02-15T17:06:23.479Z,86.40
2019-02-15T17:11:27.450Z,87.40
2019-02-15T17:13:58.685Z,87.20
2019-02-15T17:16:30.399Z,85.20
2019-02-15T17:19:01.682Z,86.60
2019-02-15T17:21:33.791Z,87.00
2019-02-15T17:24:05.010Z,86.50
2019-02-15T17:26:36.378Z,86.70
2019-02-15T17:29:07.671Z,86.50
2019-02-15T17:31:38.369Z,87.40
2019-02-15T17:34:09.596Z,85.90
2019-02-15T17:36:42.423Z,86.60
2019-02-15T17:39:14.024Z,87.60
2019-02-15T17:41:45.748Z,86.20
2019-02-15T17:44:17.410Z,86.60
2019-02-15T17:46:48.758Z,87.90
2019-02-15T17:49:21.069Z,85.50
2019-02-15T17:51:52.349Z,87.10
2019-02-15T17:54:23.727Z,87.80
2019-02-15T17:56:55.209Z,85.30
2019-02-15T17:59:26.545Z,86.20
2019-02-15T18:01:58.278Z,87.30
2019-02-15T18:04:30.161Z,86.80
2019-02-15T18:07:02.158Z,87.90
2019-02-15T18:09:34.047Z,86.80
2019-02-15T18:12:05.518Z,86.00
2019-02-15T18:14:38.444Z,86.90
2019-02-15T18:17:10.579Z,87.30
2019-02-15T18:19:47.308Z,89.00
2019-02-15T18:22:15.289Z,87.20
2019-02-15T18:24:46.813Z,88.10
2019-02-15T18:27:18.250Z,87.20
2019-02-15T18:29:49.708Z,86.10
2019-02-15T18:32:21.162Z,86.60
2019-02-15T18:34:53.352Z,86.10
2019-02-15T18:37:26.039Z,87.70
2019-02-15T18:39:57.753Z,88.20
2019-02-15T18:42:29.907Z,86.80
2019-02-15T18:45:01.813Z,84.70
2019-02-15T18:47:33.706Z,88.40
2019-02-15T18:50:05.287Z,85.10
2019-02-15T18:52:38.181Z,84.90
2019-02-15T18:55:09.825Z,88.70
2019-02-15T18:57:41.696Z,88.00
2019-02-15T19:00:14.987Z,87.60
2019-02-15T19:02:48.274Z,87.00
2019-02-15T19:05:19.767Z,85.00
2019-02-15T19:07:51.648Z,89.10
2019-02-15T19:10:25.769Z,88.50
2019-02-15T19:13:02.509Z,85.10
2019-02-15T19:15:34.598Z,84.70
2019-02-15T19:18:06.079Z,86.50
2019-02-15T19:20:37.465Z,85.10
2019-02-15T19:23:10.363Z,85.10
2019-02-15T19:25:52.228Z,85.10
2019-02-15T19:28:23.896Z,86.20
2019-02-15T19:30:55.329Z,85.10
2019-02-15T19:33:26.823Z,85.10
2019-02-15T19:36:01.218Z,87.40
2019-02-15T19:38:35.547Z,88.90
2019-02-15T19:41:08.446Z,86.20
2019-02-15T19:43:40.525Z,85.20
2019-02-15T19:46:11.830Z,87.50
2019-02-15T19:48:43.349Z,87.40
2019-02-15T19:51:15.246Z,85.10
2019-02-15T19:53:46.595Z,85.30
2019-02-15T19:56:18.098Z,85.30
2019-02-15T19:58:49.985Z,89.70
2019-02-15T20:01:21.474Z,87.60
2019-02-15T20:03:53.111Z,85.20
2019-02-15T20:06:24.430Z,87.80
2019-02-15T20:09:06.630Z,86.70
2019-02-15T20:11:38.665Z,87.80
2019-02-15T20:14:10.049Z,88.00
2019-02-15T20:16:42.024Z,88.10
2019-02-15T20:19:13.524Z,87.10
2019-02-15T20:21:50.052Z,86.90
2019-02-15T20:24:21.293Z,87.70
2019-02-15T20:26:52.845Z,85.40
2019-02-15T20:29:24.158Z,88.70
2019-02-15T20:31:55.647Z,88.20
2019-02-15T20:34:34.668Z,87.60
2019-02-15T20:37:07.874Z,88.00
2019-02-15T20:39:50.656Z,87.90
2019-02-15T20:42:30.528Z,85.60
2019-02-15T20:45:33.092Z,88.20
2019-02-15T20:48:00.626Z,87.90
2019-02-15T20:50:38.638Z,89.00
2019-02-15T20:53:10.176Z,88.10
2019-02-15T20:55:41.522Z,85.70
2019-02-15T20:58:12.838Z,88.40
2019-02-15T21:00:45.187Z,88.30
2019-02-15T21:03:16.754Z,85.80
2019-02-15T21:15:35.801Z,89.60
2019-02-15T21:18:07.308Z,86.10
2019-02-15T21:20:41.602Z,86.20
2019-02-15T21:23:13.684Z,86.40
2019-02-15T21:25:46.253Z,86.50
2019-02-15T21:28:17.629Z,88.70
2019-02-15T21:30:58.177Z,86.60
2019-02-15T21:33:34.151Z,90.00
2019-02-15T21:36:07.470Z,86.70
2019-02-15T21:38:42.493Z,86.80
2019-02-15T21:41:26.233Z,89.40
2019-02-15T21:43:59.256Z,86.90
2019-02-15T21:46:44.497Z,89.30
2019-02-15T21:49:18.690Z,87.10
2019-02-15T21:51:51.514Z,87.10
2019-02-15T21:54:24.396Z,88.90
2019-02-15T21:56:56.539Z,87.10
2019-02-15T21:59:31.210Z,87.10
2019-02-15T22:02:04.897Z,87.10
2019-02-15T22:04:40.529Z,87.00
2019-02-15T22:07:13.990Z,87.00
2019-02-15T22:09:47.532Z,87.10
2019-02-15T22:12:25.140Z,87.00
2019-02-15T22:14:58.095Z,87.00
2019-02-15T22:17:47.543Z,87.10
2019-02-15T22:20:27.047Z,87.20
2019-02-15T22:22:59.874Z,87.20
2019-02-15T22:25:38.669Z,87.10
2019-02-15T22:28:16.496Z,87.20
2019-02-15T22:30:48.543Z,87.20
2019-02-15T22:33:20.996Z,87.30
2019-02-15T22:35:52.420Z,87.30
2019-02-15T22:38:25.009Z,89.60
2019-02-15T22:41:12.829Z,88.20
2019-02-15T22:43:44.882Z,90.20
2019-02-15T22:46:16.250Z,87.50
2019-02-15T22:48:51.090Z,87.40
2019-02-15T22:51:31.481Z,89.60
2019-02-15T22:54:04.320Z,90.30
2019-02-15T22:56:39.054Z,90.10
2019-02-15T22:59:13.129Z,88.20
2019-02-15T23:01:44.605Z,90.00
2019-02-15T23:04:17.928Z,90.50
2019-02-15T23:06:50.343Z,89.60
2019-02-15T23:09:27.929Z,89.20
2019-02-15T23:12:00.440Z,90.00
2019-02-15T23:14:32.469Z,90.80
2019-02-15T23:17:05.597Z,90.00
2019-02-15T23:19:39.435Z,89.60
2019-02-15T23:22:13.189Z,90.10
2019-02-15T23:24:46.688Z,90.10
2019-02-15T23:27:19.251Z,87.50
2019-02-15T23:30:07.436Z,89.80
2019-02-15T23:32:40.189Z,90.60
2019-02-15T23:35:15.841Z,90.00
2019-02-15T23:37:56.537Z,90.30
2019-02-15T23:40:35.559Z,90.60
2019-02-15T23:43:09.933Z,90.80
2019-02-15T23:45:45.010Z,90.20
2019-02-15T23:48:17.461Z,90.40
2019-02-15T23:50:54.969Z,89.40
2019-02-15T23:53:34.341Z,90.10
2019-02-15T23:56:10.033Z,90.00
